sensor_id;sensor_type;location;lat;lon;timestamp;temperature;humidity
17827;DHT22;9038;48.208;16.308;2024-03-08T00:01:33;7.10;95.50
17827;DHT22;9038;48.208;16.308;2024-03-08T00:03:35;7.00;95.50
17827;DHT22;9038;48.208;16.308;2024-03-08T00:05:37;7.00;95.70
17827;DHT22;9038;48.208;16.308;2024-03-08T00:07:40;6.90;95.90
17827;DHT22;9038;48.208;16.308;2024-03-08T00:09:42;6.90;95.80
17827;DHT22;9038;48.208;16.308;2024-03-08T00:11:45;6.90;96.00
17827;DHT22;9038;48.208;16.308;2024-03-08T00:13:47;6.80;96.10
17827;DHT22;9038;48.208;16.308;2024-03-08T00:15:49;6.90;96.20
17827;DHT22;9038;48.208;16.308;2024-03-08T00:17:51;6.90;96.40
17827;DHT22;9038;48.208;16.308;2024-03-08T00:19:54;6.90;96.70
17827;DHT22;9038;48.208;16.308;2024-03-08T00:21:56;6.90;96.40
17827;DHT22;9038;48.208;16.308;2024-03-08T00:23:58;7.00;97.10
17827;DHT22;9038;48.208;16.308;2024-03-08T00:25:59;6.90;96.70
17827;DHT22;9038;48.208;16.308;2024-03-08T00:28:03;7.00;96.70
17827;DHT22;9038;48.208;16.308;2024-03-08T00:30:07;6.90;96.60
17827;DHT22;9038;48.208;16.308;2024-03-08T00:32:09;7.00;96.80
17827;DHT22;9038;48.208;16.308;2024-03-08T00:34:11;7.00;96.80
17827;DHT22;9038;48.208;16.308;2024-03-08T00:36:12;7.00;96.80
17827;DHT22;9038;48.208;16.308;2024-03-08T00:38:14;7.00;96.50
17827;DHT22;9038;48.208;16.308;2024-03-08T00:40:16;7.00;96.80
17827;DHT22;9038;48.208;16.308;2024-03-08T00:42:18;7.00;96.80
17827;DHT22;9038;48.208;16.308;2024-03-08T00:44:22;7.00;97.30
17827;DHT22;9038;48.208;16.308;2024-03-08T00:46:24;7.00;97.40
17827;DHT22;9038;48.208;16.308;2024-03-08T00:48:25;7.10;97.90
17827;DHT22;9038;48.208;16.308;2024-03-08T00:50:26;7.10;97.40
17827;DHT22;9038;48.208;16.308;2024-03-08T00:52:28;7.10;97.40
17827;DHT22;9038;48.208;16.308;2024-03-08T00:54:30;7.10;97.30
17827;DHT22;9038;48.208;16.308;2024-03-08T00:56:32;7.10;97.70
17827;DHT22;9038;48.208;16.308;2024-03-08T00:58:34;7.10;97.50
17827;DHT22;9038;48.208;16.308;2024-03-08T01:00:37;7.10;97.40
17827;DHT22;9038;48.208;16.308;2024-03-08T01:02:40;7.10;97.70
17827;DHT22;9038;48.208;16.308;2024-03-08T01:04:42;7.00;97.20
17827;DHT22;9038;48.208;16.308;2024-03-08T01:06:43;6.90;97.40
17827;DHT22;9038;48.208;16.308;2024-03-08T01:08:46;6.90;97.60
17827;DHT22;9038;48.208;16.308;2024-03-08T01:10:48;6.80;97.80
17827;DHT22;9038;48.208;16.308;2024-03-08T01:12:51;6.80;98.00
17827;DHT22;9038;48.208;16.308;2024-03-08T01:14:55;6.80;98.10
17827;DHT22;9038;48.208;16.308;2024-03-08T01:16:59;6.80;98.50
17827;DHT22;9038;48.208;16.308;2024-03-08T01:19:01;6.80;98.80
17827;DHT22;9038;48.208;16.308;2024-03-08T01:21:04;6.80;99.10
17827;DHT22;9038;48.208;16.308;2024-03-08T01:23:07;6.80;99.60
17827;DHT22;9038;48.208;16.308;2024-03-08T01:25:08;6.70;99.60
17827;DHT22;9038;48.208;16.308;2024-03-08T01:27:10;6.70;99.60
17827;DHT22;9038;48.208;16.308;2024-03-08T01:29:13;6.70;99.80
17827;DHT22;9038;48.208;16.308;2024-03-08T01:31:13;6.70;99.90
17827;DHT22;9038;48.208;16.308;2024-03-08T01:33:17;6.70;99.90
17827;DHT22;9038;48.208;16.308;2024-03-08T01:35:23;6.70;99.90
17827;DHT22;9038;48.208;16.308;2024-03-08T01:37:27;6.70;99.90
17827;DHT22;9038;48.208;16.308;2024-03-08T01:39:30;6.70;99.90
17827;DHT22;9038;48.208;16.308;2024-03-08T01:41:32;6.70;99.90
17827;DHT22;9038;48.208;16.308;2024-03-08T01:43:34;6.70;99.90
17827;DHT22;9038;48.208;16.308;2024-03-08T01:45:36;6.70;99.90
17827;DHT22;9038;48.208;16.308;2024-03-08T01:47:38;6.70;99.90
17827;DHT22;9038;48.208;16.308;2024-03-08T01:49:41;6.70;99.90
17827;DHT22;9038;48.208;16.308;2024-03-08T01:51:42;6.70;99.90
17827;DHT22;9038;48.208;16.308;2024-03-08T01:53:46;6.60;99.90
17827;DHT22;9038;48.208;16.308;2024-03-08T01:55:48;6.60;99.90
17827;DHT22;9038;48.208;16.308;2024-03-08T01:57:49;6.50;99.90
17827;DHT22;9038;48.208;16.308;2024-03-08T01:59:52;6.50;99.90
17827;DHT22;9038;48.208;16.308;2024-03-08T02:01:55;6.50;99.90
17827;DHT22;9038;48.208;16.308;2024-03-08T02:04:01;6.50;99.90
17827;DHT22;9038;48.208;16.308;2024-03-08T02:06:04;6.50;99.90
17827;DHT22;9038;48.208;16.308;2024-03-08T02:08:10;6.50;99.90
17827;DHT22;9038;48.208;16.308;2024-03-08T02:10:15;6.50;99.90
17827;DHT22;9038;48.208;16.308;2024-03-08T02:12:16;6.50;99.90
17827;DHT22;9038;48.208;16.308;2024-03-08T02:14:21;6.50;99.90
17827;DHT22;9038;48.208;16.308;2024-03-08T02:16:23;6.50;99.90
17827;DHT22;9038;48.208;16.308;2024-03-08T02:18:25;6.50;99.90
17827;DHT22;9038;48.208;16.308;2024-03-08T02:20:30;6.50;99.90
17827;DHT22;9038;48.208;16.308;2024-03-08T02:22:31;6.50;99.90
17827;DHT22;9038;48.208;16.308;2024-03-08T02:24:34;6.40;99.90
17827;DHT22;9038;48.208;16.308;2024-03-08T02:26:36;6.40;99.90
17827;DHT22;9038;48.208;16.308;2024-03-08T02:28:38;6.40;99.90
17827;DHT22;9038;48.208;16.308;2024-03-08T02:30:43;6.50;99.90
17827;DHT22;9038;48.208;16.308;2024-03-08T02:32:46;6.50;99.90
17827;DHT22;9038;48.208;16.308;2024-03-08T02:34:48;6.50;99.90
17827;DHT22;9038;48.208;16.308;2024-03-08T02:36:50;6.50;99.90
17827;DHT22;9038;48.208;16.308;2024-03-08T02:38:52;6.50;99.90
17827;DHT22;9038;48.208;16.308;2024-03-08T02:40:53;6.60;99.90
17827;DHT22;9038;48.208;16.308;2024-03-08T02:42:55;6.50;99.90
17827;DHT22;9038;48.208;16.308;2024-03-08T02:44:57;6.50;99.90
17827;DHT22;9038;48.208;16.308;2024-03-08T02:46:59;6.40;99.90
17827;DHT22;9038;48.208;16.308;2024-03-08T02:49:01;6.40;99.90
17827;DHT22;9038;48.208;16.308;2024-03-08T02:51:03;6.40;99.90
17827;DHT22;9038;48.208;16.308;2024-03-08T02:53:07;6.40;99.90
17827;DHT22;9038;48.208;16.308;2024-03-08T02:55:09;6.40;99.90
17827;DHT22;9038;48.208;16.308;2024-03-08T02:57:11;6.40;99.90
17827;DHT22;9038;48.208;16.308;2024-03-08T02:59:15;6.40;99.90
17827;DHT22;9038;48.208;16.308;2024-03-08T03:01:18;6.40;99.90
17827;DHT22;9038;48.208;16.308;2024-03-08T03:03:20;6.50;99.90
17827;DHT22;9038;48.208;16.308;2024-03-08T03:05:22;6.50;99.90
17827;DHT22;9038;48.208;16.308;2024-03-08T03:07:24;6.50;99.90
17827;DHT22;9038;48.208;16.308;2024-03-08T03:09:29;6.50;99.90
17827;DHT22;9038;48.208;16.308;2024-03-08T03:11:33;6.50;99.90
17827;DHT22;9038;48.208;16.308;2024-03-08T03:13:35;6.50;99.90
17827;DHT22;9038;48.208;16.308;2024-03-08T03:15:37;6.50;99.90
17827;DHT22;9038;48.208;16.308;2024-03-08T03:17:38;6.50;99.90
17827;DHT22;9038;48.208;16.308;2024-03-08T03:19:41;6.40;99.90
17827;DHT22;9038;48.208;16.308;2024-03-08T03:21:43;6.50;99.90
17827;DHT22;9038;48.208;16.308;2024-03-08T03:23:44;6.40;99.90
17827;DHT22;9038;48.208;16.308;2024-03-08T03:25:47;6.50;99.90
17827;DHT22;9038;48.208;16.308;2024-03-08T03:27:49;6.50;99.90
17827;DHT22;9038;48.208;16.308;2024-03-08T03:29:50;6.50;99.90
17827;DHT22;9038;48.208;16.308;2024-03-08T03:31:52;6.60;99.90
17827;DHT22;9038;48.208;16.308;2024-03-08T03:33:54;6.50;99.90
17827;DHT22;9038;48.208;16.308;2024-03-08T03:36:01;6.50;99.90
17827;DHT22;9038;48.208;16.308;2024-03-08T03:38:03;6.60;99.90
17827;DHT22;9038;48.208;16.308;2024-03-08T03:40:08;6.60;99.90
17827;DHT22;9038;48.208;16.308;2024-03-08T03:42:10;6.60;99.90
17827;DHT22;9038;48.208;16.308;2024-03-08T03:44:12;6.60;99.90
17827;DHT22;9038;48.208;16.308;2024-03-08T03:46:14;6.60;99.90
17827;DHT22;9038;48.208;16.308;2024-03-08T03:48:15;6.60;99.90
17827;DHT22;9038;48.208;16.308;2024-03-08T03:50:17;6.60;99.90
17827;DHT22;9038;48.208;16.308;2024-03-08T03:52:19;6.60;99.90
17827;DHT22;9038;48.208;16.308;2024-03-08T03:54:21;6.70;99.90
17827;DHT22;9038;48.208;16.308;2024-03-08T03:56:25;6.60;99.90
17827;DHT22;9038;48.208;16.308;2024-03-08T03:58:28;6.70;99.90
17827;DHT22;9038;48.208;16.308;2024-03-08T04:00:30;6.60;99.90
17827;DHT22;9038;48.208;16.308;2024-03-08T04:02:32;6.60;99.90
17827;DHT22;9038;48.208;16.308;2024-03-08T04:04:34;6.70;99.90
17827;DHT22;9038;48.208;16.308;2024-03-08T04:06:36;6.60;99.90
17827;DHT22;9038;48.208;16.308;2024-03-08T04:08:38;6.60;99.90
17827;DHT22;9038;48.208;16.308;2024-03-08T04:10:39;6.60;99.90
17827;DHT22;9038;48.208;16.308;2024-03-08T04:12:42;6.60;99.90
17827;DHT22;9038;48.208;16.308;2024-03-08T04:14:44;6.60;99.90
17827;DHT22;9038;48.208;16.308;2024-03-08T04:16:46;6.60;99.90
17827;DHT22;9038;48.208;16.308;2024-03-08T04:18:49;6.60;99.90
17827;DHT22;9038;48.208;16.308;2024-03-08T04:20:50;6.70;99.90
17827;DHT22;9038;48.208;16.308;2024-03-08T04:22:52;6.60;99.90
17827;DHT22;9038;48.208;16.308;2024-03-08T04:24:54;6.60;99.90
17827;DHT22;9038;48.208;16.308;2024-03-08T04:26:56;6.70;99.90
17827;DHT22;9038;48.208;16.308;2024-03-08T04:28:58;6.70;99.90
17827;DHT22;9038;48.208;16.308;2024-03-08T04:31:00;6.60;99.90
17827;DHT22;9038;48.208;16.308;2024-03-08T04:33:02;6.60;99.90
17827;DHT22;9038;48.208;16.308;2024-03-08T04:35:05;6.70;99.90
17827;DHT22;9038;48.208;16.308;2024-03-08T04:37:05;6.70;99.90
17827;DHT22;9038;48.208;16.308;2024-03-08T04:39:07;6.60;99.90
17827;DHT22;9038;48.208;16.308;2024-03-08T04:41:13;6.60;99.90
17827;DHT22;9038;48.208;16.308;2024-03-08T04:43:15;6.60;99.90
17827;DHT22;9038;48.208;16.308;2024-03-08T04:45:19;6.60;99.90
17827;DHT22;9038;48.208;16.308;2024-03-08T04:47:22;6.60;99.90
17827;DHT22;9038;48.208;16.308;2024-03-08T04:49:24;6.70;99.90
17827;DHT22;9038;48.208;16.308;2024-03-08T04:51:26;6.60;99.90
17827;DHT22;9038;48.208;16.308;2024-03-08T04:53:27;6.70;99.90
17827;DHT22;9038;48.208;16.308;2024-03-08T04:55:29;6.70;99.90
17827;DHT22;9038;48.208;16.308;2024-03-08T04:57:31;6.70;99.90
17827;DHT22;9038;48.208;16.308;2024-03-08T04:59:32;6.70;99.90
17827;DHT22;9038;48.208;16.308;2024-03-08T05:01:34;6.70;99.90
17827;DHT22;9038;48.208;16.308;2024-03-08T05:03:39;6.70;99.90
17827;DHT22;9038;48.208;16.308;2024-03-08T05:05:41;6.70;99.90
17827;DHT22;9038;48.208;16.308;2024-03-08T05:07:43;6.60;99.90
17827;DHT22;9038;48.208;16.308;2024-03-08T05:09:46;6.60;99.90
17827;DHT22;9038;48.208;16.308;2024-03-08T05:11:51;6.60;99.90
17827;DHT22;9038;48.208;16.308;2024-03-08T05:13:53;6.60;99.90
17827;DHT22;9038;48.208;16.308;2024-03-08T05:15:54;6.60;99.90
17827;DHT22;9038;48.208;16.308;2024-03-08T05:17:58;6.50;99.90
17827;DHT22;9038;48.208;16.308;2024-03-08T05:20:02;6.50;99.90
17827;DHT22;9038;48.208;16.308;2024-03-08T05:22:08;6.50;99.90
17827;DHT22;9038;48.208;16.308;2024-03-08T05:24:10;6.50;99.90
17827;DHT22;9038;48.208;16.308;2024-03-08T05:26:12;6.40;99.90
17827;DHT22;9038;48.208;16.308;2024-03-08T05:28:14;6.40;99.90
17827;DHT22;9038;48.208;16.308;2024-03-08T05:30:15;6.40;99.90
17827;DHT22;9038;48.208;16.308;2024-03-08T05:32:17;6.30;99.90
17827;DHT22;9038;48.208;16.308;2024-03-08T05:34:19;6.30;99.90
17827;DHT22;9038;48.208;16.308;2024-03-08T05:36:23;6.20;99.90
17827;DHT22;9038;48.208;16.308;2024-03-08T05:38:25;6.20;99.90
17827;DHT22;9038;48.208;16.308;2024-03-08T05:40:26;6.10;99.90
17827;DHT22;9038;48.208;16.308;2024-03-08T05:42:32;6.10;99.90
17827;DHT22;9038;48.208;16.308;2024-03-08T05:44:34;6.20;99.90
17827;DHT22;9038;48.208;16.308;2024-03-08T05:46:36;6.10;99.90
17827;DHT22;9038;48.208;16.308;2024-03-08T05:48:38;6.10;99.90
17827;DHT22;9038;48.208;16.308;2024-03-08T05:50:40;6.10;99.90
17827;DHT22;9038;48.208;16.308;2024-03-08T05:52:42;6.10;99.90
17827;DHT22;9038;48.208;16.308;2024-03-08T05:54:44;6.10;99.90
17827;DHT22;9038;48.208;16.308;2024-03-08T05:56:47;6.10;99.90
17827;DHT22;9038;48.208;16.308;2024-03-08T05:58:49;6.20;99.90
17827;DHT22;9038;48.208;16.308;2024-03-08T06:00:50;6.20;99.90
17827;DHT22;9038;48.208;16.308;2024-03-08T06:02:52;6.30;99.90
17827;DHT22;9038;48.208;16.308;2024-03-08T06:04:54;6.20;99.90
17827;DHT22;9038;48.208;16.308;2024-03-08T06:06:56;6.30;99.90
17827;DHT22;9038;48.208;16.308;2024-03-08T06:09:00;6.40;99.90
17827;DHT22;9038;48.208;16.308;2024-03-08T06:11:09;6.40;99.90
17827;DHT22;9038;48.208;16.308;2024-03-08T06:13:11;6.50;99.90
17827;DHT22;9038;48.208;16.308;2024-03-08T06:15:13;6.40;99.90
17827;DHT22;9038;48.208;16.308;2024-03-08T06:17:16;6.40;99.90
17827;DHT22;9038;48.208;16.308;2024-03-08T06:19:18;6.40;99.90
17827;DHT22;9038;48.208;16.308;2024-03-08T06:21:20;6.30;99.90
17827;DHT22;9038;48.208;16.308;2024-03-08T06:23:23;6.30;99.90
17827;DHT22;9038;48.208;16.308;2024-03-08T06:25:26;6.30;99.90
17827;DHT22;9038;48.208;16.308;2024-03-08T06:27:28;6.30;99.90
17827;DHT22;9038;48.208;16.308;2024-03-08T06:29:29;6.30;99.90
17827;DHT22;9038;48.208;16.308;2024-03-08T06:31:31;6.30;99.90
17827;DHT22;9038;48.208;16.308;2024-03-08T06:33:33;6.40;99.90
17827;DHT22;9038;48.208;16.308;2024-03-08T06:35:36;6.40;99.90
17827;DHT22;9038;48.208;16.308;2024-03-08T06:37:38;6.40;99.90
17827;DHT22;9038;48.208;16.308;2024-03-08T06:39:40;6.50;99.90
17827;DHT22;9038;48.208;16.308;2024-03-08T06:41:42;6.50;99.90
17827;DHT22;9038;48.208;16.308;2024-03-08T06:43:45;6.50;99.90
17827;DHT22;9038;48.208;16.308;2024-03-08T06:45:48;6.60;99.90
17827;DHT22;9038;48.208;16.308;2024-03-08T06:47:50;6.70;99.90
17827;DHT22;9038;48.208;16.308;2024-03-08T06:49:52;6.70;99.90
17827;DHT22;9038;48.208;16.308;2024-03-08T06:51:53;6.70;99.90
17827;DHT22;9038;48.208;16.308;2024-03-08T06:53:55;6.70;99.90
17827;DHT22;9038;48.208;16.308;2024-03-08T06:55:57;6.60;99.90
17827;DHT22;9038;48.208;16.308;2024-03-08T06:58:00;6.70;99.90
17827;DHT22;9038;48.208;16.308;2024-03-08T07:00:02;6.70;99.90
17827;DHT22;9038;48.208;16.308;2024-03-08T07:02:04;6.60;99.90
17827;DHT22;9038;48.208;16.308;2024-03-08T07:04:05;6.60;99.90
17827;DHT22;9038;48.208;16.308;2024-03-08T07:06:06;6.50;99.90
17827;DHT22;9038;48.208;16.308;2024-03-08T07:08:09;6.50;99.90
17827;DHT22;9038;48.208;16.308;2024-03-08T07:10:10;6.40;99.90
17827;DHT22;9038;48.208;16.308;2024-03-08T07:12:15;6.40;99.90
17827;DHT22;9038;48.208;16.308;2024-03-08T07:14:19;6.50;99.90
17827;DHT22;9038;48.208;16.308;2024-03-08T07:16:22;6.50;99.90
17827;DHT22;9038;48.208;16.308;2024-03-08T07:18:23;6.60;99.90
17827;DHT22;9038;48.208;16.308;2024-03-08T07:20:25;6.60;99.90
17827;DHT22;9038;48.208;16.308;2024-03-08T07:22:27;6.70;99.90
17827;DHT22;9038;48.208;16.308;2024-03-08T07:24:29;6.80;99.90
17827;DHT22;9038;48.208;16.308;2024-03-08T07:26:40;6.90;99.90
17827;DHT22;9038;48.208;16.308;2024-03-08T07:28:41;7.00;99.90
17827;DHT22;9038;48.208;16.308;2024-03-08T07:30:44;7.10;99.90
17827;DHT22;9038;48.208;16.308;2024-03-08T07:33:08;7.10;99.90
17827;DHT22;9038;48.208;16.308;2024-03-08T07:35:12;7.10;99.90
17827;DHT22;9038;48.208;16.308;2024-03-08T07:37:14;7.10;99.90
17827;DHT22;9038;48.208;16.308;2024-03-08T07:39:16;7.10;99.90
17827;DHT22;9038;48.208;16.308;2024-03-08T07:41:18;7.20;99.90
17827;DHT22;9038;48.208;16.308;2024-03-08T07:43:20;7.20;99.90
17827;DHT22;9038;48.208;16.308;2024-03-08T07:45:22;7.10;99.90
17827;DHT22;9038;48.208;16.308;2024-03-08T07:47:26;7.20;99.90
17827;DHT22;9038;48.208;16.308;2024-03-08T07:49:27;7.10;99.90
17827;DHT22;9038;48.208;16.308;2024-03-08T07:51:29;7.10;99.90
17827;DHT22;9038;48.208;16.308;2024-03-08T07:53:31;7.10;99.90
17827;DHT22;9038;48.208;16.308;2024-03-08T07:55:33;7.10;99.90
17827;DHT22;9038;48.208;16.308;2024-03-08T07:57:36;7.10;99.90
17827;DHT22;9038;48.208;16.308;2024-03-08T07:59:40;7.10;99.90
17827;DHT22;9038;48.208;16.308;2024-03-08T08:01:41;7.10;99.90
17827;DHT22;9038;48.208;16.308;2024-03-08T08:03:46;7.10;99.90
17827;DHT22;9038;48.208;16.308;2024-03-08T08:05:48;7.10;99.90
17827;DHT22;9038;48.208;16.308;2024-03-08T08:07:50;7.10;99.90
17827;DHT22;9038;48.208;16.308;2024-03-08T08:09:53;7.00;99.90
17827;DHT22;9038;48.208;16.308;2024-03-08T08:11:55;7.00;99.90
17827;DHT22;9038;48.208;16.308;2024-03-08T08:13:57;6.90;99.90
17827;DHT22;9038;48.208;16.308;2024-03-08T08:16:00;6.80;99.90
17827;DHT22;9038;48.208;16.308;2024-03-08T08:18:02;6.70;99.90
17827;DHT22;9038;48.208;16.308;2024-03-08T08:20:08;6.70;99.90
17827;DHT22;9038;48.208;16.308;2024-03-08T08:22:12;6.70;99.90
17827;DHT22;9038;48.208;16.308;2024-03-08T08:24:13;6.60;99.90
17827;DHT22;9038;48.208;16.308;2024-03-08T08:26:15;6.60;99.90
17827;DHT22;9038;48.208;16.308;2024-03-08T08:28:18;6.60;99.90
17827;DHT22;9038;48.208;16.308;2024-03-08T08:30:20;6.60;99.90
17827;DHT22;9038;48.208;16.308;2024-03-08T08:32:22;6.60;99.90
17827;DHT22;9038;48.208;16.308;2024-03-08T08:34:22;6.60;99.90
17827;DHT22;9038;48.208;16.308;2024-03-08T08:36:27;6.60;99.90
17827;DHT22;9038;48.208;16.308;2024-03-08T08:38:30;6.70;99.90
17827;DHT22;9038;48.208;16.308;2024-03-08T08:40:33;6.80;99.90
17827;DHT22;9038;48.208;16.308;2024-03-08T08:42:36;6.80;99.90
17827;DHT22;9038;48.208;16.308;2024-03-08T08:44:38;6.70;99.90
17827;DHT22;9038;48.208;16.308;2024-03-08T08:46:41;6.70;99.90
17827;DHT22;9038;48.208;16.308;2024-03-08T08:48:43;6.60;99.90
17827;DHT22;9038;48.208;16.308;2024-03-08T08:50:45;6.60;99.90
17827;DHT22;9038;48.208;16.308;2024-03-08T08:52:49;6.60;99.90
17827;DHT22;9038;48.208;16.308;2024-03-08T08:54:51;6.50;99.90
17827;DHT22;9038;48.208;16.308;2024-03-08T08:56:53;6.50;99.90
17827;DHT22;9038;48.208;16.308;2024-03-08T08:58:54;6.50;99.90
17827;DHT22;9038;48.208;16.308;2024-03-08T09:00:56;6.40;99.90
17827;DHT22;9038;48.208;16.308;2024-03-08T09:02:57;6.40;99.90
17827;DHT22;9038;48.208;16.308;2024-03-08T09:04:59;6.40;99.90
17827;DHT22;9038;48.208;16.308;2024-03-08T09:07:02;6.40;99.90
17827;DHT22;9038;48.208;16.308;2024-03-08T09:09:08;6.40;99.90
17827;DHT22;9038;48.208;16.308;2024-03-08T09:11:11;6.50;99.90
17827;DHT22;9038;48.208;16.308;2024-03-08T09:13:13;6.50;99.90
17827;DHT22;9038;48.208;16.308;2024-03-08T09:15:15;6.60;99.90
17827;DHT22;9038;48.208;16.308;2024-03-08T09:17:18;6.70;99.90
17827;DHT22;9038;48.208;16.308;2024-03-08T09:19:21;6.70;99.90
17827;DHT22;9038;48.208;16.308;2024-03-08T09:21:25;6.70;99.90
17827;DHT22;9038;48.208;16.308;2024-03-08T09:23:27;6.70;99.90
17827;DHT22;9038;48.208;16.308;2024-03-08T09:25:32;6.60;99.90
17827;DHT22;9038;48.208;16.308;2024-03-08T09:27:33;6.60;99.90
17827;DHT22;9038;48.208;16.308;2024-03-08T09:29:35;6.60;99.90
17827;DHT22;9038;48.208;16.308;2024-03-08T09:31:37;6.60;99.90
17827;DHT22;9038;48.208;16.308;2024-03-08T09:33:40;6.60;99.90
17827;DHT22;9038;48.208;16.308;2024-03-08T09:35:43;6.60;99.90
17827;DHT22;9038;48.208;16.308;2024-03-08T09:37:47;6.60;99.90
17827;DHT22;9038;48.208;16.308;2024-03-08T09:39:51;6.70;99.90
17827;DHT22;9038;48.208;16.308;2024-03-08T09:41:55;6.70;99.90
17827;DHT22;9038;48.208;16.308;2024-03-08T09:43:57;6.70;99.90
17827;DHT22;9038;48.208;16.308;2024-03-08T09:46:00;6.70;99.90
17827;DHT22;9038;48.208;16.308;2024-03-08T09:48:02;6.70;99.90
17827;DHT22;9038;48.208;16.308;2024-03-08T09:50:05;6.80;99.90
17827;DHT22;9038;48.208;16.308;2024-03-08T09:52:10;6.70;99.90
17827;DHT22;9038;48.208;16.308;2024-03-08T09:54:13;6.70;99.90
17827;DHT22;9038;48.208;16.308;2024-03-08T09:56:17;6.70;99.90
17827;DHT22;9038;48.208;16.308;2024-03-08T09:58:20;6.80;99.90
17827;DHT22;9038;48.208;16.308;2024-03-08T10:00:45;6.80;99.90
17827;DHT22;9038;48.208;16.308;2024-03-08T10:02:47;6.80;99.90
17827;DHT22;9038;48.208;16.308;2024-03-08T10:04:51;6.90;99.90
17827;DHT22;9038;48.208;16.308;2024-03-08T10:06:53;6.90;99.90
17827;DHT22;9038;48.208;16.308;2024-03-08T10:08:57;6.90;99.90
17827;DHT22;9038;48.208;16.308;2024-03-08T10:10:59;7.00;99.90
17827;DHT22;9038;48.208;16.308;2024-03-08T10:13:00;7.20;99.90
17827;DHT22;9038;48.208;16.308;2024-03-08T10:15:05;7.30;99.90
17827;DHT22;9038;48.208;16.308;2024-03-08T10:17:08;7.50;99.90
17827;DHT22;9038;48.208;16.308;2024-03-08T10:19:10;7.60;99.90
17827;DHT22;9038;48.208;16.308;2024-03-08T10:21:13;7.70;99.90
17827;DHT22;9038;48.208;16.308;2024-03-08T10:23:16;7.80;99.90
17827;DHT22;9038;48.208;16.308;2024-03-08T10:25:18;7.90;99.90
17827;DHT22;9038;48.208;16.308;2024-03-08T10:27:20;8.00;99.90
17827;DHT22;9038;48.208;16.308;2024-03-08T10:29:22;8.20;99.90
17827;DHT22;9038;48.208;16.308;2024-03-08T10:31:25;8.30;99.90
17827;DHT22;9038;48.208;16.308;2024-03-08T10:33:27;8.40;99.90
17827;DHT22;9038;48.208;16.308;2024-03-08T10:35:28;8.40;99.90
17827;DHT22;9038;48.208;16.308;2024-03-08T10:37:30;8.50;99.90
17827;DHT22;9038;48.208;16.308;2024-03-08T10:39:36;8.60;99.90
17827;DHT22;9038;48.208;16.308;2024-03-08T10:41:40;8.60;99.90
17827;DHT22;9038;48.208;16.308;2024-03-08T10:43:57;8.70;99.90
17827;DHT22;9038;48.208;16.308;2024-03-08T10:46:15;8.70;99.90
17827;DHT22;9038;48.208;16.308;2024-03-08T10:48:28;8.60;99.90
17827;DHT22;9038;48.208;16.308;2024-03-08T10:50:33;8.50;99.90
17827;DHT22;9038;48.208;16.308;2024-03-08T10:52:36;8.70;99.90
17827;DHT22;9038;48.208;16.308;2024-03-08T10:54:39;8.80;99.90
17827;DHT22;9038;48.208;16.308;2024-03-08T10:56:43;8.80;99.90
17827;DHT22;9038;48.208;16.308;2024-03-08T10:58:46;9.00;99.90
17827;DHT22;9038;48.208;16.308;2024-03-08T11:00:48;9.10;99.90
17827;DHT22;9038;48.208;16.308;2024-03-08T11:02:51;9.10;99.90
17827;DHT22;9038;48.208;16.308;2024-03-08T11:04:55;9.20;99.90
17827;DHT22;9038;48.208;16.308;2024-03-08T11:07:01;9.10;99.90
17827;DHT22;9038;48.208;16.308;2024-03-08T11:09:10;9.10;99.90
17827;DHT22;9038;48.208;16.308;2024-03-08T11:11:25;9.00;99.90
17827;DHT22;9038;48.208;16.308;2024-03-08T11:13:35;9.00;99.90
17827;DHT22;9038;48.208;16.308;2024-03-08T11:15:39;9.10;99.90
17827;DHT22;9038;48.208;16.308;2024-03-08T11:17:45;9.00;99.90
17827;DHT22;9038;48.208;16.308;2024-03-08T11:19:47;9.00;99.90
17827;DHT22;9038;48.208;16.308;2024-03-08T11:21:57;9.10;99.90
17827;DHT22;9038;48.208;16.308;2024-03-08T11:23:59;9.00;99.90
17827;DHT22;9038;48.208;16.308;2024-03-08T11:26:01;8.90;99.90
17827;DHT22;9038;48.208;16.308;2024-03-08T11:28:13;9.00;99.90
17827;DHT22;9038;48.208;16.308;2024-03-08T11:30:22;9.20;99.90
17827;DHT22;9038;48.208;16.308;2024-03-08T11:44:53;12.30;99.90
17827;DHT22;9038;48.208;16.308;2024-03-08T11:46:55;12.00;99.90
17827;DHT22;9038;48.208;16.308;2024-03-08T11:48:57;11.60;96.80
17827;DHT22;9038;48.208;16.308;2024-03-08T11:50:59;11.30;99.90
17827;DHT22;9038;48.208;16.308;2024-03-08T11:53:02;11.00;98.10
17827;DHT22;9038;48.208;16.308;2024-03-08T11:55:07;10.80;98.00
17827;DHT22;9038;48.208;16.308;2024-03-08T11:57:09;10.60;98.50
17827;DHT22;9038;48.208;16.308;2024-03-08T11:59:11;10.30;98.50
17827;DHT22;9038;48.208;16.308;2024-03-08T12:01:14;10.20;98.80
17827;DHT22;9038;48.208;16.308;2024-03-08T12:03:17;10.20;98.40
17827;DHT22;9038;48.208;16.308;2024-03-08T12:05:19;10.20;98.00
17827;DHT22;9038;48.208;16.308;2024-03-08T12:07:20;10.20;98.50
17827;DHT22;9038;48.208;16.308;2024-03-08T12:09:22;10.40;99.00
17827;DHT22;9038;48.208;16.308;2024-03-08T12:11:24;10.60;98.80
17827;DHT22;9038;48.208;16.308;2024-03-08T12:13:27;10.50;98.50
17827;DHT22;9038;48.208;16.308;2024-03-08T12:15:32;10.40;98.50
17827;DHT22;9038;48.208;16.308;2024-03-08T12:17:34;10.20;98.40
17827;DHT22;9038;48.208;16.308;2024-03-08T12:19:36;9.90;99.10
17827;DHT22;9038;48.208;16.308;2024-03-08T12:21:38;9.70;98.90
17827;DHT22;9038;48.208;16.308;2024-03-08T12:24:02;9.60;99.60
17827;DHT22;9038;48.208;16.308;2024-03-08T12:26:12;9.40;99.90
17827;DHT22;9038;48.208;16.308;2024-03-08T12:28:16;9.50;99.90
17827;DHT22;9038;48.208;16.308;2024-03-08T12:30:21;9.50;99.90
17827;DHT22;9038;48.208;16.308;2024-03-08T12:32:22;9.70;99.90
17827;DHT22;9038;48.208;16.308;2024-03-08T12:34:24;9.80;99.90
17827;DHT22;9038;48.208;16.308;2024-03-08T12:36:27;10.00;99.90
17827;DHT22;9038;48.208;16.308;2024-03-08T12:38:28;10.00;99.90
17827;DHT22;9038;48.208;16.308;2024-03-08T12:40:33;10.10;99.90
17827;DHT22;9038;48.208;16.308;2024-03-08T12:42:35;10.10;99.90
17827;DHT22;9038;48.208;16.308;2024-03-08T12:44:38;9.90;99.90
17827;DHT22;9038;48.208;16.308;2024-03-08T12:46:44;9.90;99.90
17827;DHT22;9038;48.208;16.308;2024-03-08T12:48:46;9.80;99.90
17827;DHT22;9038;48.208;16.308;2024-03-08T12:50:48;9.80;99.90
17827;DHT22;9038;48.208;16.308;2024-03-08T12:52:51;9.80;99.90
17827;DHT22;9038;48.208;16.308;2024-03-08T12:54:54;9.70;99.90
17827;DHT22;9038;48.208;16.308;2024-03-08T12:56:56;9.70;99.90
17827;DHT22;9038;48.208;16.308;2024-03-08T12:58:59;9.50;99.90
17827;DHT22;9038;48.208;16.308;2024-03-08T13:01:02;9.50;99.90
17827;DHT22;9038;48.208;16.308;2024-03-08T13:03:05;9.50;99.90
17827;DHT22;9038;48.208;16.308;2024-03-08T13:05:07;9.60;99.90
17827;DHT22;9038;48.208;16.308;2024-03-08T13:07:11;9.70;99.90
17827;DHT22;9038;48.208;16.308;2024-03-08T13:09:17;9.80;99.90
17827;DHT22;9038;48.208;16.308;2024-03-08T13:11:20;9.90;99.90
17827;DHT22;9038;48.208;16.308;2024-03-08T13:13:23;10.00;99.90
17827;DHT22;9038;48.208;16.308;2024-03-08T13:15:25;10.00;99.90
17827;DHT22;9038;48.208;16.308;2024-03-08T13:17:28;10.00;99.90
17827;DHT22;9038;48.208;16.308;2024-03-08T13:19:30;10.00;99.90
17827;DHT22;9038;48.208;16.308;2024-03-08T13:21:32;9.90;99.90